createdAt,value
2022-12-04T00:02:20.034Z,33.84
2022-12-04T00:04:46.544Z,28.90
2022-12-04T00:07:13.090Z,27.04
2022-12-04T00:09:39.503Z,26.44
2022-12-04T00:12:05.887Z,27.30
2022-12-04T00:14:32.262Z,27.35
2022-12-04T00:16:58.845Z,27.99
2022-12-04T00:19:25.200Z,27.06
2022-12-04T00:21:51.564Z,28.76
2022-12-04T00:24:18.086Z,29.89
2022-12-04T00:26:46.359Z,27.40
2022-12-04T00:29:12.773Z,27.33
2022-12-04T00:31:39.195Z,27.85
2022-12-04T00:34:07.992Z,27.56
2022-12-04T00:36:34.775Z,27.40
2022-12-04T00:39:01.214Z,27.87
2022-12-04T00:41:29.575Z,28.69
2022-12-04T00:43:55.957Z,28.49
2022-12-04T00:46:22.373Z,27.38
2022-12-04T00:48:48.738Z,28.66
2022-12-04T00:51:15.179Z,27.85
2022-12-04T00:53:41.650Z,28.32
2022-12-04T00:56:09.965Z,28.34
2022-12-04T00:58:36.421Z,28.62
2022-12-04T01:01:03.238Z,27.96
2022-12-04T01:03:29.731Z,26.53
2022-12-04T01:05:56.210Z,27.32
2022-12-04T01:08:23.380Z,26.84
2022-12-04T01:11:02.508Z,27.63
2022-12-04T01:13:34.148Z,27.99
2022-12-04T01:16:00.594Z,27.30
2022-12-04T01:18:27.183Z,27.00
2022-12-04T01:20:53.688Z,26.26
2022-12-04T01:23:20.239Z,27.06
2022-12-04T01:25:46.605Z,26.89
2022-12-04T01:28:20.264Z,27.11
2022-12-04T01:30:46.620Z,26.82
2022-12-04T01:33:13.030Z,27.03
2022-12-04T01:35:39.412Z,26.02
2022-12-04T01:38:05.909Z,25.61
2022-12-04T01:40:34.963Z,25.25
2022-12-04T01:43:06.976Z,25.36
2022-12-04T01:45:33.736Z,25.42
2022-12-04T01:48:08.325Z,25.81
2022-12-04T01:50:34.716Z,24.96
2022-12-04T01:53:01.103Z,24.83
2022-12-04T01:55:27.516Z,25.33
2022-12-04T01:57:53.867Z,25.57
2022-12-04T02:00:20.390Z,26.24
2022-12-04T02:02:49.590Z,26.60
2022-12-04T02:05:16.186Z,27.24
2022-12-04T02:07:43.010Z,27.97
2022-12-04T02:10:14.221Z,27.52
2022-12-04T02:12:41.087Z,25.94
2022-12-04T02:15:07.896Z,26.11
2022-12-04T02:17:34.410Z,26.93
2022-12-04T02:20:00.853Z,26.88
2022-12-04T02:22:27.691Z,26.83
2022-12-04T02:24:54.128Z,26.93
2022-12-04T02:27:20.635Z,27.31
2022-12-04T02:29:47.171Z,27.39
2022-12-04T02:32:13.566Z,26.60
2022-12-04T02:34:40.065Z,26.42
2022-12-04T02:37:06.412Z,27.34
2022-12-04T02:39:32.822Z,26.47
2022-12-04T02:41:59.210Z,26.29
2022-12-04T02:44:25.585Z,26.75
2022-12-04T02:46:51.973Z,27.00
2022-12-04T02:49:18.382Z,26.89
2022-12-04T02:51:44.880Z,26.84
2022-12-04T02:54:13.329Z,26.37
2022-12-04T02:56:39.748Z,26.37
2022-12-04T02:59:06.478Z,26.77
2022-12-04T03:01:33.051Z,27.07
2022-12-04T03:03:59.591Z,26.82
2022-12-04T03:06:26.655Z,26.90
2022-12-04T03:08:52.969Z,26.65
2022-12-04T03:11:19.358Z,26.39
2022-12-04T03:13:45.704Z,26.80
2022-12-04T03:16:15.135Z,26.59
2022-12-04T03:18:41.611Z,27.28
2022-12-04T03:21:08.028Z,26.92
2022-12-04T03:23:34.434Z,27.06
2022-12-04T03:26:00.801Z,27.34
2022-12-04T03:28:27.155Z,26.93
2022-12-04T03:30:53.968Z,27.29
2022-12-04T03:33:20.542Z,27.56
2022-12-04T03:35:46.907Z,27.40
2022-12-04T03:38:13.459Z,27.44
2022-12-04T03:40:39.809Z,27.11
2022-12-04T03:43:06.174Z,27.15
2022-12-04T03:45:32.540Z,27.18
2022-12-04T03:47:58.908Z,26.48
2022-12-04T03:50:25.258Z,26.84
2022-12-04T03:52:51.596Z,26.60
2022-12-04T03:55:17.978Z,27.60
2022-12-04T03:57:44.351Z,26.97
2022-12-04T04:00:10.667Z,27.32
2022-12-04T04:02:37.037Z,27.10
2022-12-04T04:05:03.504Z,25.92
2022-12-04T04:07:35.121Z,26.19
2022-12-04T04:10:01.835Z,27.55
2022-12-04T04:12:28.256Z,27.67
2022-12-04T04:14:54.607Z,28.58
2022-12-04T04:17:20.933Z,28.66
2022-12-04T04:19:47.251Z,28.30
2022-12-04T04:22:13.627Z,28.34
2022-12-04T04:24:40.157Z,27.95
2022-12-04T04:27:06.496Z,30.01
2022-12-04T04:29:32.900Z,27.59
2022-12-04T04:31:59.266Z,28.35
2022-12-04T04:34:25.656Z,27.11
2022-12-04T04:36:51.982Z,27.01
2022-12-04T04:39:18.346Z,27.13
2022-12-04T04:41:44.761Z,27.52
2022-12-04T04:44:11.187Z,26.75
2022-12-04T04:46:38.055Z,26.99
2022-12-04T04:49:04.662Z,27.20
2022-12-04T04:51:31.047Z,27.25
2022-12-04T04:53:57.514Z,27.83
2022-12-04T04:56:23.878Z,27.72
2022-12-04T04:58:50.245Z,28.45
2022-12-04T05:01:16.751Z,28.00
2022-12-04T05:03:43.162Z,28.61
2022-12-04T05:06:09.583Z,29.30
2022-12-04T05:08:35.935Z,29.18
2022-12-04T05:11:02.314Z,29.41
2022-12-04T05:13:28.702Z,29.71
2022-12-04T05:15:55.148Z,29.16
2022-12-04T05:18:21.579Z,28.36
2022-12-04T05:20:47.969Z,27.35
2022-12-04T05:23:17.395Z,27.63
2022-12-04T05:25:43.757Z,29.05
2022-12-04T05:28:10.154Z,29.36
2022-12-04T05:30:36.578Z,28.93
2022-12-04T05:33:02.969Z,29.05
2022-12-04T05:35:29.274Z,28.85
2022-12-04T05:37:55.604Z,28.53
2022-12-04T05:40:22.024Z,27.75
2022-12-04T05:42:48.382Z,27.36
2022-12-04T05:45:14.755Z,29.90
2022-12-04T05:47:41.138Z,28.77
2022-12-04T05:50:07.467Z,28.16
2022-12-04T05:52:34.005Z,27.42
2022-12-04T05:55:00.395Z,26.42
2022-12-04T05:57:29.743Z,27.34
2022-12-04T05:59:56.818Z,26.84
2022-12-04T06:02:23.409Z,27.89
2022-12-04T06:04:49.965Z,28.34
2022-12-04T06:07:16.383Z,27.61
2022-12-04T06:09:42.760Z,26.98
2022-12-04T06:12:09.185Z,26.99
2022-12-04T06:14:39.478Z,27.42
2022-12-04T06:17:06.384Z,27.10
2022-12-04T06:19:32.843Z,27.76
2022-12-04T06:21:59.181Z,27.29
2022-12-04T06:24:25.586Z,27.25
2022-12-04T06:27:25.782Z,27.47
2022-12-04T06:29:38.309Z,27.40
2022-12-04T06:32:04.778Z,27.13
2022-12-04T06:34:31.409Z,27.32
2022-12-04T06:36:57.848Z,28.29
2022-12-04T06:39:24.234Z,27.66
2022-12-04T06:41:50.580Z,27.80
2022-12-04T06:44:17.016Z,28.13
2022-12-04T06:46:47.243Z,28.40
2022-12-04T06:49:14.391Z,27.23
2022-12-04T06:51:40.812Z,28.64
2022-12-04T06:54:07.298Z,27.84
2022-12-04T06:56:33.691Z,28.36
2022-12-04T06:59:00.045Z,27.70
2022-12-04T07:01:26.569Z,28.52
2022-12-04T07:03:53.079Z,28.30
2022-12-04T07:06:19.530Z,28.14
2022-12-04T07:08:45.918Z,28.42
2022-12-04T07:11:12.447Z,28.44
2022-12-04T07:13:38.887Z,28.18
2022-12-04T07:16:05.294Z,27.82
2022-12-04T07:18:31.902Z,27.64
2022-12-04T07:20:58.268Z,27.86
2022-12-04T07:23:26.305Z,28.20
2022-12-04T07:25:52.657Z,28.21
2022-12-04T07:28:19.030Z,28.37
2022-12-04T07:30:45.365Z,28.55
2022-12-04T07:33:17.851Z,27.39
2022-12-04T07:35:44.210Z,27.76
2022-12-04T07:38:10.777Z,28.34
2022-12-04T07:40:43.339Z,27.41
2022-12-04T07:43:09.757Z,27.82
2022-12-04T07:45:43.818Z,28.19
2022-12-04T07:48:17.742Z,26.95
2022-12-04T07:50:44.414Z,27.47
2022-12-04T07:53:10.793Z,27.96
2022-12-04T07:58:21.079Z,30.43
2022-12-04T08:00:49.262Z,29.02
2022-12-04T08:03:15.723Z,28.52
2022-12-04T08:05:42.306Z,26.10
2022-12-04T08:08:08.818Z,26.92
2022-12-04T08:10:35.303Z,26.93
2022-12-04T08:13:01.765Z,27.74
2022-12-04T08:15:28.299Z,27.96
2022-12-04T08:17:54.703Z,27.68
2022-12-04T08:20:21.056Z,28.56
2022-12-04T08:22:48.803Z,27.64
2022-12-04T08:25:17.708Z,27.63
2022-12-04T08:27:47.368Z,28.45
2022-12-04T08:30:14.270Z,28.11
2022-12-04T08:32:48.239Z,28.11
2022-12-04T08:38:27.013Z,28.64
2022-12-04T08:40:53.492Z,29.33
2022-12-04T08:43:19.917Z,29.14
2022-12-04T08:45:46.476Z,29.65
2022-12-04T08:48:13.030Z,29.77
2022-12-04T08:50:39.440Z,29.01
2022-12-04T08:53:05.926Z,29.24
2022-12-04T08:55:32.313Z,29.69
2022-12-04T08:57:58.790Z,28.96
2022-12-04T09:00:25.234Z,28.90
2022-12-04T09:02:51.773Z,29.27
2022-12-04T09:05:18.161Z,29.36
2022-12-04T09:07:44.726Z,29.56
2022-12-04T09:10:12.909Z,28.82
2022-12-04T09:12:42.159Z,28.95
2022-12-04T09:15:16.501Z,29.38
2022-12-04T09:17:45.195Z,29.28
2022-12-04T09:20:11.661Z,29.50
2022-12-04T09:23:02.140Z,29.35
2022-12-04T09:25:37.195Z,29.15
2022-12-04T09:28:55.263Z,29.64
2022-12-04T09:42:08.300Z,28.47
2022-12-04T09:50:07.055Z,28.71
2022-12-04T09:52:35.051Z,28.46
2022-12-04T09:55:09.571Z,29.56
2022-12-04T09:57:36.257Z,28.53
2022-12-04T10:00:10.253Z,29.57
2022-12-04T10:02:37.594Z,29.21
2022-12-04T10:05:10.310Z,29.49
2022-12-04T10:07:36.823Z,28.83
2022-12-04T10:10:03.508Z,29.33
2022-12-04T10:15:10.598Z,30.19
2022-12-04T10:17:37.347Z,30.58
2022-12-04T10:20:03.962Z,29.98
2022-12-04T10:22:33.642Z,29.36
2022-12-04T10:25:00.261Z,29.71
2022-12-04T10:27:27.917Z,29.17
2022-12-04T10:29:57.240Z,28.26
2022-12-04T10:32:24.213Z,29.66
2022-12-04T10:34:50.562Z,28.91
2022-12-04T10:37:17.021Z,29.24
2022-12-04T10:39:43.447Z,35.37
2022-12-04T10:42:09.936Z,31.46
2022-12-04T10:44:36.349Z,29.51
2022-12-04T10:47:02.872Z,29.04
2022-12-04T10:52:30.568Z,28.25
2022-12-04T10:54:59.121Z,28.65
2022-12-04T10:57:25.991Z,28.58
2022-12-04T10:59:52.488Z,29.51
2022-12-04T11:02:20.223Z,29.07
2022-12-04T11:04:49.589Z,29.11
2022-12-04T11:09:56.513Z,27.97
2022-12-04T11:12:23.185Z,27.46
2022-12-04T11:14:49.757Z,28.40
2022-12-04T11:17:16.245Z,31.15
2022-12-04T11:19:42.698Z,30.42
2022-12-04T11:22:09.343Z,29.49
2022-12-04T11:27:16.206Z,29.44
2022-12-04T11:29:42.762Z,29.38
2022-12-04T11:32:09.380Z,29.45
2022-12-04T11:34:35.833Z,29.38
2022-12-04T11:37:02.357Z,29.42
2022-12-04T11:39:31.819Z,29.97
2022-12-04T11:41:58.315Z,28.78
2022-12-04T11:44:29.039Z,29.64
2022-12-04T11:46:55.515Z,29.24
2022-12-04T11:49:23.122Z,28.92
2022-12-04T11:51:55.519Z,28.81
2022-12-04T11:54:22.023Z,28.84
2022-12-04T11:59:39.371Z,29.25
2022-12-04T12:02:06.050Z,29.10
2022-12-04T12:04:32.592Z,29.58
2022-12-04T12:06:59.089Z,29.69
2022-12-04T12:09:25.727Z,29.56
2022-12-04T12:14:32.537Z,29.12
2022-12-04T12:16:59.071Z,28.64
2022-12-04T12:19:25.520Z,29.55
2022-12-04T12:21:52.049Z,29.51
2022-12-04T12:24:18.506Z,28.94
2022-12-04T12:26:45.012Z,29.71
2022-12-04T12:29:14.420Z,28.82
2022-12-04T12:31:41.053Z,29.27
2022-12-04T12:34:07.639Z,29.00
2022-12-04T12:36:34.145Z,28.91
2022-12-04T12:39:00.573Z,28.45
2022-12-04T12:41:27.036Z,28.47
2022-12-04T12:43:53.528Z,28.53
2022-12-04T12:46:20.148Z,28.36
2022-12-04T12:48:46.642Z,29.13
2022-12-04T12:51:29.559Z,28.72
2022-12-04T12:53:57.182Z,30.30
2022-12-04T12:56:23.703Z,29.34
2022-12-04T12:58:50.095Z,27.95
2022-12-04T13:01:16.624Z,28.42
2022-12-04T13:03:45.482Z,27.96
2022-12-04T13:06:11.999Z,27.61
2022-12-04T13:11:18.796Z,28.03
2022-12-04T13:13:45.330Z,28.20
2022-12-04T13:16:11.914Z,28.38
2022-12-04T13:18:39.708Z,28.63
2022-12-04T13:21:06.186Z,29.23
2022-12-04T13:23:32.729Z,27.45
2022-12-04T13:25:59.143Z,28.21
2022-12-04T13:28:25.659Z,28.92
2022-12-04T13:30:52.138Z,29.30
2022-12-04T13:33:18.652Z,58.05
2022-12-04T13:35:47.622Z,44.97
2022-12-04T13:38:17.076Z,30.51
2022-12-04T13:40:43.525Z,29.16
2022-12-04T13:43:09.949Z,28.42
2022-12-04T13:45:46.028Z,28.00
2022-12-04T13:48:12.715Z,27.84
2022-12-04T13:50:39.275Z,28.61
2022-12-04T13:53:09.747Z,28.20
2022-12-04T13:55:36.260Z,28.49
2022-12-04T13:58:02.810Z,27.45
2022-12-04T14:00:29.297Z,27.85
2022-12-04T14:02:55.954Z,27.61
2022-12-04T14:05:22.617Z,28.48
2022-12-04T14:07:49.124Z,32.51
2022-12-04T14:10:15.659Z,30.43
2022-12-04T14:12:42.143Z,27.83
2022-12-04T14:17:55.880Z,26.75
2022-12-04T14:20:22.527Z,27.28
2022-12-04T14:22:49.966Z,27.41
2022-12-04T14:25:23.584Z,27.22
2022-12-04T14:27:50.166Z,27.21
2022-12-04T14:30:16.692Z,27.00
2022-12-04T14:32:43.186Z,26.71
2022-12-04T14:35:09.853Z,27.08
2022-12-04T14:37:36.381Z,27.82
2022-12-04T14:40:02.887Z,27.18
2022-12-04T14:42:38.487Z,27.08
2022-12-04T14:45:05.289Z,27.23
2022-12-04T14:50:22.870Z,28.49
2022-12-04T14:52:49.351Z,26.96
2022-12-04T15:00:39.452Z,29.29
2022-12-04T15:03:05.967Z,26.60
2022-12-04T15:05:36.829Z,26.44
2022-12-04T15:08:06.123Z,27.47
2022-12-04T15:10:32.744Z,27.37
2022-12-04T15:12:59.123Z,26.42
2022-12-04T15:15:25.718Z,26.50
2022-12-04T15:17:54.223Z,26.66
2022-12-04T15:20:20.668Z,27.34
2022-12-04T15:22:56.076Z,30.44
2022-12-04T15:25:22.781Z,31.59
2022-12-04T15:27:49.269Z,30.07
2022-12-04T15:30:18.229Z,28.68
2022-12-04T15:32:44.947Z,27.55
2022-12-04T15:35:11.971Z,27.44
2022-12-04T15:37:45.921Z,29.39
2022-12-04T15:40:13.468Z,27.25
2022-12-04T15:42:39.918Z,28.29
2022-12-04T15:45:06.399Z,28.85
2022-12-04T15:47:32.916Z,27.65
2022-12-04T15:50:00.449Z,26.97
2022-12-04T15:52:26.888Z,27.19
2022-12-04T15:54:53.535Z,26.57
2022-12-04T15:57:20.219Z,27.43
2022-12-04T15:59:46.696Z,30.46
2022-12-04T16:02:13.228Z,45.43
2022-12-04T16:04:45.249Z,30.87
2022-12-04T16:07:12.018Z,27.74
2022-12-04T16:09:38.474Z,27.66
2022-12-04T16:12:04.862Z,27.91
2022-12-04T16:14:31.189Z,27.86
2022-12-04T16:17:02.557Z,27.71
2022-12-04T16:19:32.227Z,27.88
2022-12-04T16:21:58.671Z,27.64
2022-12-04T16:24:25.706Z,26.44
2022-12-04T16:26:52.597Z,26.75
2022-12-04T16:29:21.885Z,25.58
2022-12-04T16:31:50.963Z,25.64
2022-12-04T16:34:17.566Z,24.78
2022-12-04T16:36:44.073Z,24.67
2022-12-04T16:39:11.821Z,25.18
2022-12-04T16:41:38.363Z,26.39
2022-12-04T16:44:04.885Z,28.87
2022-12-04T16:46:31.502Z,27.61
2022-12-04T16:49:02.803Z,27.00
2022-12-04T16:51:32.429Z,28.49
2022-12-04T16:53:58.938Z,27.81
2022-12-04T16:56:27.956Z,24.04
2022-12-04T16:58:54.425Z,23.87
2022-12-04T17:01:21.001Z,24.72
2022-12-04T17:03:47.645Z,25.02
2022-12-04T17:06:15.744Z,24.34
2022-12-04T17:08:42.244Z,24.41
2022-12-04T17:11:08.602Z,25.61
2022-12-04T17:13:35.111Z,23.53
2022-12-04T17:18:41.905Z,22.30
2022-12-04T17:21:15.688Z,21.19
2022-12-04T17:23:42.551Z,21.40
2022-12-04T17:26:09.467Z,21.70
2022-12-04T17:28:35.864Z,22.19
2022-12-04T17:34:04.109Z,22.16
2022-12-04T17:36:30.945Z,21.12
2022-12-04T17:39:03.487Z,21.53
2022-12-04T17:41:30.084Z,22.13
2022-12-04T17:43:56.573Z,24.51
2022-12-04T17:46:23.174Z,25.21
2022-12-04T17:48:49.811Z,26.29
2022-12-04T17:51:16.317Z,26.20
2022-12-04T17:53:42.777Z,24.92
2022-12-04T17:56:09.266Z,25.78
2022-12-04T17:58:35.831Z,25.20
2022-12-04T18:01:02.458Z,26.00
2022-12-04T18:03:29.161Z,27.87
2022-12-04T18:05:55.766Z,27.20
2022-12-04T18:08:22.286Z,27.38
2022-12-04T18:10:48.924Z,26.50
2022-12-04T18:13:15.422Z,26.70
2022-12-04T18:15:41.895Z,25.66
2022-12-04T18:18:08.526Z,24.94
2022-12-04T18:20:38.026Z,24.01
2022-12-04T18:23:04.501Z,25.96
2022-12-04T18:25:31.001Z,28.20
2022-12-04T18:27:57.561Z,30.00
2022-12-04T18:30:24.004Z,29.62
2022-12-04T18:32:50.705Z,29.45
2022-12-04T18:35:17.455Z,29.07
2022-12-04T18:37:43.882Z,29.23
2022-12-04T18:40:10.375Z,29.21
2022-12-04T18:42:36.864Z,29.70
2022-12-04T18:45:03.408Z,28.49
2022-12-04T18:47:29.908Z,29.66
2022-12-04T18:49:56.619Z,29.55
2022-12-04T18:52:30.794Z,30.36
2022-12-04T18:54:57.367Z,28.50
2022-12-04T18:57:23.874Z,28.39
2022-12-04T18:59:50.458Z,28.67
2022-12-04T19:02:16.989Z,29.17
2022-12-04T19:04:43.669Z,29.84
2022-12-04T19:07:10.593Z,30.32
2022-12-04T19:10:09.247Z,29.77
2022-12-04T19:12:23.710Z,29.19
2022-12-04T19:14:50.390Z,30.81
2022-12-04T19:17:16.927Z,29.99
2022-12-04T19:19:43.331Z,28.89
2022-12-04T19:22:09.720Z,28.77
2022-12-04T19:24:36.096Z,29.16
2022-12-04T19:27:02.560Z,28.66
2022-12-04T19:29:29.060Z,29.33
2022-12-04T19:31:59.228Z,28.85
2022-12-04T19:34:26.176Z,28.41
2022-12-04T19:36:52.596Z,28.50
2022-12-04T19:39:19.030Z,28.87
2022-12-04T19:41:45.340Z,28.97
2022-12-04T19:44:46.645Z,28.44
2022-12-04T19:47:00.564Z,28.54
2022-12-04T19:49:26.982Z,28.10
2022-12-04T19:51:53.396Z,28.57
2022-12-04T19:54:19.769Z,28.33
2022-12-04T19:56:46.135Z,29.58
2022-12-04T19:59:12.525Z,30.22
2022-12-04T20:01:39.076Z,27.90
2022-12-04T20:04:05.809Z,28.42
2022-12-04T20:06:33.282Z,29.88
2022-12-04T20:08:59.693Z,27.09
2022-12-04T20:11:26.083Z,28.66
2022-12-04T20:13:52.483Z,28.40
2022-12-04T20:16:19.437Z,27.88
2022-12-04T20:18:45.950Z,28.88
2022-12-04T20:21:12.402Z,28.08
2022-12-04T20:23:38.781Z,29.06
2022-12-04T20:26:05.103Z,28.35
2022-12-04T20:28:31.494Z,27.76
2022-12-04T20:30:58.243Z,27.69
2022-12-04T20:33:25.659Z,27.23
2022-12-04T20:35:52.458Z,26.88
2022-12-04T20:38:18.878Z,26.93
2022-12-04T20:40:45.512Z,27.22
2022-12-04T20:43:12.123Z,26.89
2022-12-04T20:45:38.783Z,27.52
2022-12-04T20:48:05.191Z,27.46
2022-12-04T20:50:31.675Z,28.53
2022-12-04T20:52:58.491Z,32.14
2022-12-04T20:55:24.974Z,26.63
2022-12-04T20:57:53.665Z,26.31
2022-12-04T21:00:22.227Z,26.37
2022-12-04T21:02:48.664Z,26.34
2022-12-04T21:05:15.070Z,27.58
2022-12-04T21:07:51.400Z,27.98
2022-12-04T21:10:25.268Z,27.53
2022-12-04T21:12:51.648Z,27.11
2022-12-04T21:15:18.133Z,26.08
2022-12-04T21:17:44.473Z,26.85
2022-12-04T21:20:11.045Z,26.61
2022-12-04T21:22:39.532Z,26.32
2022-12-04T21:25:05.912Z,26.75
2022-12-04T21:27:32.330Z,26.10
2022-12-04T21:29:58.881Z,26.44
2022-12-04T21:32:25.534Z,26.19
2022-12-04T21:34:51.979Z,26.26
2022-12-04T21:37:18.379Z,27.05
2022-12-04T21:39:44.871Z,26.03
2022-12-04T21:42:11.566Z,26.24
2022-12-04T21:44:38.822Z,26.28
2022-12-04T21:47:06.860Z,27.30
2022-12-04T21:49:33.216Z,26.56
2022-12-04T21:51:59.723Z,26.80
2022-12-04T21:54:26.160Z,27.02
2022-12-04T21:56:52.757Z,25.92
2022-12-04T21:59:19.459Z,24.87
2022-12-04T22:01:46.068Z,26.51
2022-12-04T22:04:12.650Z,27.00
2022-12-04T22:06:39.192Z,28.32
2022-12-04T22:09:06.749Z,27.59
2022-12-04T22:11:33.203Z,28.00
2022-12-04T22:13:59.564Z,28.29
2022-12-04T22:16:30.350Z,28.19
2022-12-04T22:19:05.044Z,27.02
2022-12-04T22:21:31.558Z,26.39
2022-12-04T22:23:57.986Z,23.59
2022-12-04T22:26:24.327Z,23.55
2022-12-04T22:28:50.730Z,22.64
2022-12-04T22:31:17.281Z,22.31
2022-12-04T22:33:43.726Z,22.38
2022-12-04T22:36:10.101Z,19.79
2022-12-04T22:38:47.225Z,16.01
2022-12-04T22:41:23.082Z,15.59
2022-12-04T22:43:49.445Z,14.13
2022-12-04T22:46:16.077Z,13.58
2022-12-04T22:48:45.199Z,10.74
2022-12-04T22:51:23.435Z,9.63
2022-12-04T22:53:49.802Z,9.62
2022-12-04T22:56:16.174Z,10.88
2022-12-04T22:58:42.553Z,12.00
2022-12-04T23:01:09.101Z,13.03
2022-12-04T23:03:35.581Z,11.47
2022-12-04T23:06:01.956Z,9.71
2022-12-04T23:08:28.546Z,7.10
2022-12-04T23:10:54.972Z,5.45
2022-12-04T23:13:21.358Z,5.96
2022-12-04T23:15:47.704Z,5.60
2022-12-04T23:18:14.210Z,4.78
2022-12-04T23:20:40.582Z,4.12
2022-12-04T23:23:06.955Z,5.55
2022-12-04T23:25:33.335Z,6.31
2022-12-04T23:27:59.812Z,11.18
2022-12-04T23:30:28.365Z,13.19
2022-12-04T23:32:56.925Z,13.68
2022-12-04T23:35:23.297Z,14.16
2022-12-04T23:37:49.666Z,14.01
2022-12-04T23:40:16.075Z,12.85
2022-12-04T23:42:46.886Z,11.66
2022-12-04T23:45:13.302Z,11.00
2022-12-04T23:47:39.776Z,10.90
2022-12-04T23:50:08.632Z,11.61
2022-12-04T23:52:34.978Z,11.99
2022-12-04T23:55:01.380Z,13.73
2022-12-04T23:57:27.806Z,14.73
2022-12-04T23:59:54.353Z,15.11
